sensor_id;sensor_type;location;lat;lon;timestamp;temperature;humidity
35894;DHT22;21994;48.204;16.516;2023-12-20T19:11:41;6.00;99.90
35894;DHT22;21994;48.204;16.516;2023-12-20T19:14:07;5.90;99.90
35894;DHT22;21994;48.204;16.516;2023-12-20T19:16:37;5.90;99.90
35894;DHT22;21994;48.204;16.516;2023-12-20T19:19:03;5.90;99.90
35894;DHT22;21994;48.204;16.516;2023-12-20T19:21:29;6.10;99.90
35894;DHT22;21994;48.204;16.516;2023-12-20T19:23:55;6.10;99.90
35894;DHT22;21994;48.204;16.516;2023-12-20T19:26:20;6.10;99.90
35894;DHT22;21994;48.204;16.516;2023-12-20T19:28:46;6.10;99.90
35894;DHT22;21994;48.204;16.516;2023-12-20T19:31:12;6.00;99.90
35894;DHT22;21994;48.204;16.516;2023-12-20T19:33:38;6.10;99.90
35894;DHT22;21994;48.204;16.516;2023-12-20T19:36:05;6.10;99.90
35894;DHT22;21994;48.204;16.516;2023-12-20T19:38:32;6.10;99.90
35894;DHT22;21994;48.204;16.516;2023-12-20T19:40:59;6.10;99.90
35894;DHT22;21994;48.204;16.516;2023-12-20T19:43:25;6.00;99.90
35894;DHT22;21994;48.204;16.516;2023-12-20T19:45:50;6.00;99.90
35894;DHT22;21994;48.204;16.516;2023-12-20T19:48:16;6.10;99.90
35894;DHT22;21994;48.204;16.516;2023-12-20T19:50:42;6.10;99.90
35894;DHT22;21994;48.204;16.516;2023-12-20T19:53:07;6.10;99.90
35894;DHT22;21994;48.204;16.516;2023-12-20T19:55:34;6.10;99.90
35894;DHT22;21994;48.204;16.516;2023-12-20T19:58:00;6.10;99.90
35894;DHT22;21994;48.204;16.516;2023-12-20T20:00:26;6.10;99.90
35894;DHT22;21994;48.204;16.516;2023-12-20T20:02:53;6.00;99.90
35894;DHT22;21994;48.204;16.516;2023-12-20T20:05:18;6.00;99.90
35894;DHT22;21994;48.204;16.516;2023-12-20T20:07:45;6.00;99.90
35894;DHT22;21994;48.204;16.516;2023-12-20T20:10:11;6.00;99.90
35894;DHT22;21994;48.204;16.516;2023-12-20T20:12:37;6.00;99.90
35894;DHT22;21994;48.204;16.516;2023-12-20T20:15:03;6.20;99.90
35894;DHT22;21994;48.204;16.516;2023-12-20T20:17:30;6.10;99.90
35894;DHT22;21994;48.204;16.516;2023-12-20T20:19:55;6.20;99.90
35894;DHT22;21994;48.204;16.516;2023-12-20T20:22:21;6.10;99.90
35894;DHT22;21994;48.204;16.516;2023-12-20T20:24:48;6.10;99.90
35894;DHT22;21994;48.204;16.516;2023-12-20T20:27:14;6.10;99.90
35894;DHT22;21994;48.204;16.516;2023-12-20T20:29:43;6.10;99.90
35894;DHT22;21994;48.204;16.516;2023-12-20T20:32:08;6.10;99.90
35894;DHT22;21994;48.204;16.516;2023-12-20T20:34:34;6.10;99.90
35894;DHT22;21994;48.204;16.516;2023-12-20T20:37:00;6.10;99.90
35894;DHT22;21994;48.204;16.516;2023-12-20T20:39:26;6.10;99.90
35894;DHT22;21994;48.204;16.516;2023-12-20T20:41:52;6.10;99.90
35894;DHT22;21994;48.204;16.516;2023-12-20T20:44:17;6.20;99.90
35894;DHT22;21994;48.204;16.516;2023-12-20T20:46:43;6.20;99.90
35894;DHT22;21994;48.204;16.516;2023-12-20T20:49:09;6.20;99.90
35894;DHT22;21994;48.204;16.516;2023-12-20T20:51:35;6.20;99.90
35894;DHT22;21994;48.204;16.516;2023-12-20T20:54:01;6.20;99.90
35894;DHT22;21994;48.204;16.516;2023-12-20T20:56:29;6.20;99.90
35894;DHT22;21994;48.204;16.516;2023-12-20T20:58:55;6.10;99.90
35894;DHT22;21994;48.204;16.516;2023-12-20T21:01:21;6.10;99.90
35894;DHT22;21994;48.204;16.516;2023-12-20T21:03:47;6.10;99.90
35894;DHT22;21994;48.204;16.516;2023-12-20T21:06:12;6.10;99.90
35894;DHT22;21994;48.204;16.516;2023-12-20T21:08:38;6.10;99.90
35894;DHT22;21994;48.204;16.516;2023-12-20T21:11:04;6.10;99.90
35894;DHT22;21994;48.204;16.516;2023-12-20T21:13:30;6.10;99.90
35894;DHT22;21994;48.204;16.516;2023-12-20T21:15:58;6.10;99.90
35894;DHT22;21994;48.204;16.516;2023-12-20T21:18:24;6.10;99.90
35894;DHT22;21994;48.204;16.516;2023-12-20T21:20:50;6.10;99.90
35894;DHT22;21994;48.204;16.516;2023-12-20T21:23:16;6.00;99.90
35894;DHT22;21994;48.204;16.516;2023-12-20T21:25:42;6.10;99.90
35894;DHT22;21994;48.204;16.516;2023-12-20T21:28:09;6.00;99.90
35894;DHT22;21994;48.204;16.516;2023-12-20T21:30:36;6.00;99.90
35894;DHT22;21994;48.204;16.516;2023-12-20T21:33:02;6.00;99.90
35894;DHT22;21994;48.204;16.516;2023-12-20T21:35:29;6.00;99.90
35894;DHT22;21994;48.204;16.516;2023-12-20T21:37:55;6.00;99.90
35894;DHT22;21994;48.204;16.516;2023-12-20T21:40:21;6.00;99.90
35894;DHT22;21994;48.204;16.516;2023-12-20T21:42:49;6.00;99.90
35894;DHT22;21994;48.204;16.516;2023-12-20T21:45:16;6.10;99.90
35894;DHT22;21994;48.204;16.516;2023-12-20T21:47:42;6.10;99.90
35894;DHT22;21994;48.204;16.516;2023-12-20T21:50:08;6.20;99.90
35894;DHT22;21994;48.204;16.516;2023-12-20T21:52:34;6.20;99.90
35894;DHT22;21994;48.204;16.516;2023-12-20T21:54:59;6.20;99.90
35894;DHT22;21994;48.204;16.516;2023-12-20T21:57:26;6.20;99.90
35894;DHT22;21994;48.204;16.516;2023-12-20T21:59:51;6.30;99.90
35894;DHT22;21994;48.204;16.516;2023-12-20T22:02:17;6.30;99.90
35894;DHT22;21994;48.204;16.516;2023-12-20T22:04:43;6.30;99.90
35894;DHT22;21994;48.204;16.516;2023-12-20T22:07:09;6.30;99.90
35894;DHT22;21994;48.204;16.516;2023-12-20T22:09:34;6.30;99.90
35894;DHT22;21994;48.204;16.516;2023-12-20T22:12:00;6.30;99.90
35894;DHT22;21994;48.204;16.516;2023-12-20T22:14:27;6.30;99.90
35894;DHT22;21994;48.204;16.516;2023-12-20T22:16:55;6.30;99.90
35894;DHT22;21994;48.204;16.516;2023-12-20T22:19:21;6.30;99.90
35894;DHT22;21994;48.204;16.516;2023-12-20T22:21:47;6.30;99.90
35894;DHT22;21994;48.204;16.516;2023-12-20T22:24:13;6.30;99.90
35894;DHT22;21994;48.204;16.516;2023-12-20T22:26:39;6.30;99.90
35894;DHT22;21994;48.204;16.516;2023-12-20T22:29:04;6.30;99.90
35894;DHT22;21994;48.204;16.516;2023-12-20T22:31:30;6.30;99.90
35894;DHT22;21994;48.204;16.516;2023-12-20T22:33:56;6.30;99.90
35894;DHT22;21994;48.204;16.516;2023-12-20T22:36:22;6.30;99.90
35894;DHT22;21994;48.204;16.516;2023-12-20T22:38:47;6.30;99.90
35894;DHT22;21994;48.204;16.516;2023-12-20T22:41:14;6.40;99.90
35894;DHT22;21994;48.204;16.516;2023-12-20T22:43:40;6.40;99.90
35894;DHT22;21994;48.204;16.516;2023-12-20T22:46:06;6.40;99.90
35894;DHT22;21994;48.204;16.516;2023-12-20T22:48:33;6.40;99.90
35894;DHT22;21994;48.204;16.516;2023-12-20T22:50:59;6.40;99.90
35894;DHT22;21994;48.204;16.516;2023-12-20T22:53:25;6.30;99.90
35894;DHT22;21994;48.204;16.516;2023-12-20T22:55:51;6.40;99.90
35894;DHT22;21994;48.204;16.516;2023-12-20T22:58:19;6.40;99.90
35894;DHT22;21994;48.204;16.516;2023-12-20T23:00:44;6.40;99.90
35894;DHT22;21994;48.204;16.516;2023-12-20T23:03:10;6.30;99.90
35894;DHT22;21994;48.204;16.516;2023-12-20T23:05:39;6.30;99.90
35894;DHT22;21994;48.204;16.516;2023-12-20T23:08:07;6.40;99.90
35894;DHT22;21994;48.204;16.516;2023-12-20T23:10:35;6.40;99.90
35894;DHT22;21994;48.204;16.516;2023-12-20T23:13:01;6.40;99.90
35894;DHT22;21994;48.204;16.516;2023-12-20T23:15:26;6.40;99.90
35894;DHT22;21994;48.204;16.516;2023-12-20T23:17:53;6.40;99.90
35894;DHT22;21994;48.204;16.516;2023-12-20T23:20:20;6.40;99.90
35894;DHT22;21994;48.204;16.516;2023-12-20T23:22:45;6.40;99.90
35894;DHT22;21994;48.204;16.516;2023-12-20T23:25:11;6.40;99.90
35894;DHT22;21994;48.204;16.516;2023-12-20T23:27:37;6.30;99.90
35894;DHT22;21994;48.204;16.516;2023-12-20T23:30:03;6.40;99.90
35894;DHT22;21994;48.204;16.516;2023-12-20T23:32:29;6.40;99.90
35894;DHT22;21994;48.204;16.516;2023-12-20T23:34:55;6.40;99.90
35894;DHT22;21994;48.204;16.516;2023-12-20T23:37:20;6.40;99.90
35894;DHT22;21994;48.204;16.516;2023-12-20T23:39:46;6.50;99.90
35894;DHT22;21994;48.204;16.516;2023-12-20T23:42:12;6.50;99.90
35894;DHT22;21994;48.204;16.516;2023-12-20T23:44:42;6.50;99.90
35894;DHT22;21994;48.204;16.516;2023-12-20T23:47:08;6.60;99.90
35894;DHT22;21994;48.204;16.516;2023-12-20T23:49:34;6.60;99.90
35894;DHT22;21994;48.204;16.516;2023-12-20T23:52:00;6.50;99.90
35894;DHT22;21994;48.204;16.516;2023-12-20T23:54:26;6.50;99.90
35894;DHT22;21994;48.204;16.516;2023-12-20T23:56:52;6.50;99.90
35894;DHT22;21994;48.204;16.516;2023-12-20T23:59:17;6.50;99.90
